sensor_id;sensor_type;location;lat;lon;timestamp;pressure;altitude;pressure_sealevel;temperature;humidity
81181;BME280;70650;51.408;7.132;2024-03-02T00:00:21;98832.69;;;7.47;72.37
81181;BME280;70650;51.408;7.132;2024-03-02T00:02:48;98826.59;;;7.46;72.63
81181;BME280;70650;51.408;7.132;2024-03-02T00:05:21;98819.38;;;7.62;71.86
81181;BME280;70650;51.408;7.132;2024-03-02T00:07:57;98818.53;;;7.62;71.89
81181;BME280;70650;51.408;7.132;2024-03-02T00:10:30;98821.34;;;7.59;71.83
81181;BME280;70650;51.408;7.132;2024-03-02T00:13:01;98828.94;;;7.63;71.97
81181;BME280;70650;51.408;7.132;2024-03-02T00:17:55;98812.88;;;7.68;71.64
81181;BME280;70650;51.408;7.132;2024-03-02T00:20:24;98823.94;;;7.73;71.00
81181;BME280;70650;51.408;7.132;2024-03-02T00:22:56;98831.31;;;7.81;70.72
81181;BME280;70650;51.408;7.132;2024-03-02T00:25:25;98827.28;;;7.75;71.21
81181;BME280;70650;51.408;7.132;2024-03-02T00:27:50;98832.25;;;7.80;70.83
81181;BME280;70650;51.408;7.132;2024-03-02T00:33:07;98826.69;;;7.84;70.48
81181;BME280;70650;51.408;7.132;2024-03-02T00:35:32;98818.69;;;7.86;70.52
81181;BME280;70650;51.408;7.132;2024-03-02T00:37:58;98818.97;;;7.81;70.40
81181;BME280;70650;51.408;7.132;2024-03-02T00:40:29;98812.69;;;7.84;70.11
81181;BME280;70650;51.408;7.132;2024-03-02T00:42:55;98806.25;;;7.88;70.36
81181;BME280;70650;51.408;7.132;2024-03-02T00:45:21;98801.75;;;7.90;69.91
81181;BME280;70650;51.408;7.132;2024-03-02T00:47:46;98798.88;;;7.80;70.45
81181;BME280;70650;51.408;7.132;2024-03-02T00:50:13;98798.69;;;7.83;70.36
81181;BME280;70650;51.408;7.132;2024-03-02T00:52:40;98793.84;;;7.90;69.68
81181;BME280;70650;51.408;7.132;2024-03-02T00:55:05;98790.47;;;7.88;70.07
81181;BME280;70650;51.408;7.132;2024-03-02T00:57:33;98790.03;;;7.94;69.49
81181;BME280;70650;51.408;7.132;2024-03-02T00:59:59;98785.00;;;7.91;69.50
81181;BME280;70650;51.408;7.132;2024-03-02T01:02:25;98791.75;;;7.95;69.44
81181;BME280;70650;51.408;7.132;2024-03-02T01:04:50;98782.25;;;8.05;69.07
81181;BME280;70650;51.408;7.132;2024-03-02T01:07:16;98784.81;;;8.07;68.56
81181;BME280;70650;51.408;7.132;2024-03-02T01:09:42;98797.75;;;8.10;68.72
81181;BME280;70650;51.408;7.132;2024-03-02T01:12:07;98799.34;;;8.12;68.40
81181;BME280;70650;51.408;7.132;2024-03-02T01:14:32;98803.34;;;8.18;68.36
81181;BME280;70650;51.408;7.132;2024-03-02T01:16:57;98811.31;;;8.16;68.75
81181;BME280;70650;51.408;7.132;2024-03-02T01:19:23;98799.75;;;8.19;68.13
81181;BME280;70650;51.408;7.132;2024-03-02T01:21:48;98792.69;;;8.19;68.17
81181;BME280;70650;51.408;7.132;2024-03-02T01:24:16;98801.84;;;8.27;67.90
81181;BME280;70650;51.408;7.132;2024-03-02T01:26:42;98790.38;;;8.28;67.70
81181;BME280;70650;51.408;7.132;2024-03-02T01:29:07;98792.69;;;8.32;67.57
81181;BME280;70650;51.408;7.132;2024-03-02T01:31:33;98794.28;;;8.35;67.33
81181;BME280;70650;51.408;7.132;2024-03-02T01:33:58;98792.41;;;8.37;67.02
81181;BME280;70650;51.408;7.132;2024-03-02T01:36:23;98797.75;;;8.35;67.17
81181;BME280;70650;51.408;7.132;2024-03-02T01:38:49;98791.13;;;8.30;67.58
81181;BME280;70650;51.408;7.132;2024-03-02T01:41:15;98795.03;;;8.24;67.71
81181;BME280;70650;51.408;7.132;2024-03-02T01:43:40;98788.69;;;8.27;67.41
81181;BME280;70650;51.408;7.132;2024-03-02T01:46:05;98785.94;;;8.28;67.46
81181;BME280;70650;51.408;7.132;2024-03-02T01:48:31;98785.31;;;8.24;67.65
81181;BME280;70650;51.408;7.132;2024-03-02T01:50:56;98793.00;;;8.28;66.91
81181;BME280;70650;51.408;7.132;2024-03-02T01:53:22;98786.81;;;8.29;66.95
81181;BME280;70650;51.408;7.132;2024-03-02T01:55:48;98784.16;;;8.16;67.41
81181;BME280;70650;51.408;7.132;2024-03-02T01:58:14;98778.28;;;8.12;67.83
81181;BME280;70650;51.408;7.132;2024-03-02T02:00:39;98786.72;;;8.17;67.21
81181;BME280;70650;51.408;7.132;2024-03-02T02:03:05;98785.66;;;8.07;67.39
81181;BME280;70650;51.408;7.132;2024-03-02T02:05:31;98779.53;;;8.07;67.78
81181;BME280;70650;51.408;7.132;2024-03-02T02:07:57;98778.47;;;8.09;67.94
81181;BME280;70650;51.408;7.132;2024-03-02T02:10:24;98774.34;;;8.05;67.97
81181;BME280;70650;51.408;7.132;2024-03-02T02:12:49;98769.22;;;8.04;67.82
81181;BME280;70650;51.408;7.132;2024-03-02T02:15:28;98771.66;;;8.07;68.06
81181;BME280;70650;51.408;7.132;2024-03-02T02:17:54;98767.84;;;7.98;68.40
81181;BME280;70650;51.408;7.132;2024-03-02T02:20:19;98760.25;;;7.93;67.98
81181;BME280;70650;51.408;7.132;2024-03-02T02:23:02;98767.31;;;7.93;68.43
81181;BME280;70650;51.408;7.132;2024-03-02T02:25:29;98766.34;;;7.94;68.52
81181;BME280;70650;51.408;7.132;2024-03-02T02:27:55;98755.75;;;7.95;68.32
81181;BME280;70650;51.408;7.132;2024-03-02T02:32:50;98775.34;;;8.17;67.30
81181;BME280;70650;51.408;7.132;2024-03-02T02:35:16;98782.59;;;8.13;67.71
81181;BME280;70650;51.408;7.132;2024-03-02T02:37:42;98771.84;;;8.16;67.25
81181;BME280;70650;51.408;7.132;2024-03-02T02:40:08;98769.13;;;8.18;67.90
81181;BME280;70650;51.408;7.132;2024-03-02T02:42:34;98769.13;;;8.18;67.63
81181;BME280;70650;51.408;7.132;2024-03-02T02:44:59;98776.91;;;8.19;67.31
81181;BME280;70650;51.408;7.132;2024-03-02T02:47:25;98779.97;;;8.13;67.70
81181;BME280;70650;51.408;7.132;2024-03-02T02:49:51;98783.72;;;8.22;67.19
81181;BME280;70650;51.408;7.132;2024-03-02T02:52:16;98777.53;;;8.23;67.18
81181;BME280;70650;51.408;7.132;2024-03-02T02:54:41;98778.56;;;8.20;67.34
81181;BME280;70650;51.408;7.132;2024-03-02T02:57:06;98775.34;;;8.17;68.04
81181;BME280;70650;51.408;7.132;2024-03-02T02:59:32;98769.31;;;8.15;67.22
81181;BME280;70650;51.408;7.132;2024-03-02T03:01:57;98774.78;;;8.24;66.71
81181;BME280;70650;51.408;7.132;2024-03-02T03:04:22;98767.31;;;8.18;67.58
81181;BME280;70650;51.408;7.132;2024-03-02T03:06:47;98775.09;;;8.20;66.88
81181;BME280;70650;51.408;7.132;2024-03-02T03:09:13;98767.09;;;8.21;67.38
81181;BME280;70650;51.408;7.132;2024-03-02T03:11:38;98760.91;;;8.22;67.17
81181;BME280;70650;51.408;7.132;2024-03-02T03:14:03;98758.47;;;8.19;67.76
81181;BME280;70650;51.408;7.132;2024-03-02T03:16:30;98758.47;;;8.19;67.26
81181;BME280;70650;51.408;7.132;2024-03-02T03:18:55;98762.91;;;8.19;67.74
81181;BME280;70650;51.408;7.132;2024-03-02T03:21:20;98762.47;;;8.25;67.48
81181;BME280;70650;51.408;7.132;2024-03-02T03:23:46;98775.09;;;8.20;67.40
81181;BME280;70650;51.408;7.132;2024-03-02T03:26:12;98765.09;;;8.25;67.25
81181;BME280;70650;51.408;7.132;2024-03-02T03:28:38;98758.75;;;8.28;66.85
81181;BME280;70650;51.408;7.132;2024-03-02T03:31:04;98765.63;;;8.30;67.16
81181;BME280;70650;51.408;7.132;2024-03-02T03:33:29;98772.88;;;8.27;67.07
81181;BME280;70650;51.408;7.132;2024-03-02T03:35:54;98764.88;;;8.28;67.38
81181;BME280;70650;51.408;7.132;2024-03-02T03:38:19;98767.72;;;8.25;67.06
81181;BME280;70650;51.408;7.132;2024-03-02T03:40:45;98774.69;;;8.26;67.22
81181;BME280;70650;51.408;7.132;2024-03-02T03:43:10;98778.56;;;8.20;67.57
81181;BME280;70650;51.408;7.132;2024-03-02T03:45:35;98788.69;;;8.27;66.87
81181;BME280;70650;51.408;7.132;2024-03-02T03:48:02;98786.69;;;8.30;67.13
81181;BME280;70650;51.408;7.132;2024-03-02T03:50:27;98785.94;;;8.28;66.88
81181;BME280;70650;51.408;7.132;2024-03-02T03:52:52;98782.88;;;8.21;67.34
81181;BME280;70650;51.408;7.132;2024-03-02T03:55:18;98783.13;;;8.18;67.44
81181;BME280;70650;51.408;7.132;2024-03-02T03:57:43;98784.81;;;8.19;67.36
81181;BME280;70650;51.408;7.132;2024-03-02T04:00:09;98770.38;;;8.25;66.94
81181;BME280;70650;51.408;7.132;2024-03-02T04:02:36;98777.72;;;8.33;67.46
81181;BME280;70650;51.408;7.132;2024-03-02T04:05:02;98785.09;;;8.28;66.96
81181;BME280;70650;51.408;7.132;2024-03-02T04:07:30;98783.09;;;8.31;67.37
81181;BME280;70650;51.408;7.132;2024-03-02T04:09:56;98786.06;;;8.27;67.28
81181;BME280;70650;51.408;7.132;2024-03-02T04:12:22;98783.41;;;8.27;67.55
81181;BME280;70650;51.408;7.132;2024-03-02T04:14:47;98798.38;;;8.26;67.38
81181;BME280;70650;51.408;7.132;2024-03-02T04:17:12;98792.50;;;8.22;68.19
81181;BME280;70650;51.408;7.132;2024-03-02T04:19:38;98793.53;;;8.20;68.08
81181;BME280;70650;51.408;7.132;2024-03-02T04:22:04;98791.53;;;8.23;67.87
81181;BME280;70650;51.408;7.132;2024-03-02T04:24:29;98788.38;;;8.18;67.58
81181;BME280;70650;51.408;7.132;2024-03-02T04:26:55;98787.97;;;8.24;68.03
81181;BME280;70650;51.408;7.132;2024-03-02T04:29:20;98790.25;;;8.16;68.17
81181;BME280;70650;51.408;7.132;2024-03-02T04:31:45;98794.69;;;8.16;68.36
81181;BME280;70650;51.408;7.132;2024-03-02T04:34:11;98797.31;;;8.16;68.38
81181;BME280;70650;51.408;7.132;2024-03-02T04:36:37;98801.97;;;8.12;68.37
81181;BME280;70650;51.408;7.132;2024-03-02T04:39:03;98802.28;;;8.08;68.03
81181;BME280;70650;51.408;7.132;2024-03-02T04:41:28;98805.22;;;8.03;68.13
81181;BME280;70650;51.408;7.132;2024-03-02T04:43:54;98801.63;;;8.04;68.30
81181;BME280;70650;51.408;7.132;2024-03-02T04:46:20;98805.63;;;7.97;68.83
81181;BME280;70650;51.408;7.132;2024-03-02T04:48:45;98799.75;;;8.06;68.46
81181;BME280;70650;51.408;7.132;2024-03-02T04:51:10;98810.47;;;7.90;68.99
81181;BME280;70650;51.408;7.132;2024-03-02T04:53:36;98813.13;;;7.90;68.89
81181;BME280;70650;51.408;7.132;2024-03-02T04:56:01;98813.84;;;7.80;69.13
81181;BME280;70650;51.408;7.132;2024-03-02T04:58:45;98814.03;;;7.77;69.28
81181;BME280;70650;51.408;7.132;2024-03-02T05:01:10;98825.50;;;7.76;69.27
81181;BME280;70650;51.408;7.132;2024-03-02T05:03:36;98820.25;;;7.76;69.41
81181;BME280;70650;51.408;7.132;2024-03-02T05:06:01;98807.09;;;7.76;69.31
81181;BME280;70650;51.408;7.132;2024-03-02T05:08:26;98804.25;;;7.66;70.06
81181;BME280;70650;51.408;7.132;2024-03-02T05:10:51;98813.19;;;7.76;69.35
81181;BME280;70650;51.408;7.132;2024-03-02T05:13:17;98807.72;;;7.66;69.62
81181;BME280;70650;51.408;7.132;2024-03-02T05:15:44;98806.34;;;7.74;69.46
81181;BME280;70650;51.408;7.132;2024-03-02T05:18:09;98812.44;;;7.61;69.74
81181;BME280;70650;51.408;7.132;2024-03-02T05:20:34;98809.03;;;7.59;69.93
81181;BME280;70650;51.408;7.132;2024-03-02T05:23:01;98810.94;;;7.57;69.96
81181;BME280;70650;51.408;7.132;2024-03-02T05:25:26;98815.38;;;7.57;70.27
81181;BME280;70650;51.408;7.132;2024-03-02T05:27:52;98821.75;;;7.53;70.30
81181;BME280;70650;51.408;7.132;2024-03-02T05:30:17;98826.28;;;7.51;70.29
81181;BME280;70650;51.408;7.132;2024-03-02T05:32:42;98820.75;;;7.55;70.16
81181;BME280;70650;51.408;7.132;2024-03-02T05:35:09;98819.78;;;7.56;70.25
81181;BME280;70650;51.408;7.132;2024-03-02T05:37:36;98822.59;;;7.53;70.09
81181;BME280;70650;51.408;7.132;2024-03-02T05:40:03;98805.56;;;7.46;70.35
81181;BME280;70650;51.408;7.132;2024-03-02T05:42:30;98803.44;;;7.38;70.88
81181;BME280;70650;51.408;7.132;2024-03-02T05:44:56;98798.59;;;7.45;70.96
81181;BME280;70650;51.408;7.132;2024-03-02T05:47:21;98796.28;;;7.40;70.66
81181;BME280;70650;51.408;7.132;2024-03-02T05:49:46;98800.69;;;7.40;71.02
81181;BME280;70650;51.408;7.132;2024-03-02T05:52:12;98813.19;;;7.36;70.98
81181;BME280;70650;51.408;7.132;2024-03-02T05:54:37;98811.31;;;7.38;71.03
81181;BME280;70650;51.408;7.132;2024-03-02T05:57:03;98822.31;;;7.31;71.54
81181;BME280;70650;51.408;7.132;2024-03-02T05:59:42;98822.56;;;7.40;70.84
81181;BME280;70650;51.408;7.132;2024-03-02T06:02:08;98821.91;;;7.37;71.05
81181;BME280;70650;51.408;7.132;2024-03-02T06:04:33;98824.03;;;7.32;71.09
81181;BME280;70650;51.408;7.132;2024-03-02T06:06:58;98821.44;;;7.17;71.48
81181;BME280;70650;51.408;7.132;2024-03-02T06:09:23;98829.22;;;7.19;71.37
81181;BME280;70650;51.408;7.132;2024-03-02T06:11:49;98819.91;;;7.28;70.96
81181;BME280;70650;51.408;7.132;2024-03-02T06:14:16;98829.66;;;7.26;71.18
81181;BME280;70650;51.408;7.132;2024-03-02T06:16:41;98824.41;;;7.26;71.30
81181;BME280;70650;51.408;7.132;2024-03-02T06:19:06;98826.69;;;7.17;71.49
81181;BME280;70650;51.408;7.132;2024-03-02T06:21:33;98834.06;;;7.25;71.73
81181;BME280;70650;51.408;7.132;2024-03-02T06:23:58;98840.22;;;7.11;71.84
81181;BME280;70650;51.408;7.132;2024-03-02T06:26:23;98842.19;;;7.08;72.31
81181;BME280;70650;51.408;7.132;2024-03-02T06:28:49;98844.53;;;7.12;71.63
81181;BME280;70650;51.408;7.132;2024-03-02T06:31:15;98851.13;;;7.05;71.96
81181;BME280;70650;51.408;7.132;2024-03-02T06:33:40;98861.94;;;7.01;72.46
81181;BME280;70650;51.408;7.132;2024-03-02T06:36:08;98871.25;;;6.92;72.73
81181;BME280;70650;51.408;7.132;2024-03-02T06:38:34;98865.06;;;6.93;72.60
81181;BME280;70650;51.408;7.132;2024-03-02T06:41:00;98863.16;;;6.95;72.77
81181;BME280;70650;51.408;7.132;2024-03-02T06:43:25;98862.97;;;6.98;72.37
81181;BME280;70650;51.408;7.132;2024-03-02T06:45:51;98873.28;;;7.01;72.77
81181;BME280;70650;51.408;7.132;2024-03-02T06:48:17;98875.94;;;6.87;73.05
81181;BME280;70650;51.408;7.132;2024-03-02T06:50:46;98867.75;;;6.91;72.81
81181;BME280;70650;51.408;7.132;2024-03-02T06:53:13;98872.94;;;6.93;73.02
81181;BME280;70650;51.408;7.132;2024-03-02T06:55:38;98872.06;;;7.07;72.13
81181;BME280;70650;51.408;7.132;2024-03-02T06:58:04;98882.41;;;6.96;73.27
81181;BME280;70650;51.408;7.132;2024-03-02T07:00:30;98885.31;;;7.05;72.46
81181;BME280;70650;51.408;7.132;2024-03-02T07:02:55;98877.41;;;7.05;72.04
81181;BME280;70650;51.408;7.132;2024-03-02T07:05:20;98878.81;;;7.11;72.37
81181;BME280;70650;51.408;7.132;2024-03-02T07:07:46;98890.91;;;7.13;72.48
81181;BME280;70650;51.408;7.132;2024-03-02T07:10:11;98892.25;;;7.06;72.86
81181;BME280;70650;51.408;7.132;2024-03-02T07:12:36;98888.66;;;7.07;72.28
81181;BME280;70650;51.408;7.132;2024-03-02T07:15:03;98899.91;;;7.24;71.96
81181;BME280;70650;51.408;7.132;2024-03-02T07:17:28;98894.66;;;7.24;72.00
81181;BME280;70650;51.408;7.132;2024-03-02T07:19:53;98901.13;;;7.18;72.26
81181;BME280;70650;51.408;7.132;2024-03-02T07:22:19;98889.00;;;7.30;72.22
81181;BME280;70650;51.408;7.132;2024-03-02T07:24:45;98906.00;;;7.24;72.52
81181;BME280;70650;51.408;7.132;2024-03-02T07:27:13;98898.88;;;7.26;72.12
81181;BME280;70650;51.408;7.132;2024-03-02T07:29:39;98903.75;;;7.32;71.95
81181;BME280;70650;51.408;7.132;2024-03-02T07:32:05;98899.97;;;7.36;71.85
81181;BME280;70650;51.408;7.132;2024-03-02T07:34:31;98907.16;;;7.47;71.76
81181;BME280;70650;51.408;7.132;2024-03-02T07:36:57;98894.16;;;7.58;71.52
81181;BME280;70650;51.408;7.132;2024-03-02T07:39:22;98902.56;;;7.78;71.20
81181;BME280;70650;51.408;7.132;2024-03-02T07:41:48;98904.66;;;7.73;70.63
81181;BME280;70650;51.408;7.132;2024-03-02T07:44:13;98900.56;;;7.81;70.56
81181;BME280;70650;51.408;7.132;2024-03-02T07:46:44;98907.09;;;7.88;70.88
81181;BME280;70650;51.408;7.132;2024-03-02T07:49:15;98896.81;;;7.98;70.23
81181;BME280;70650;51.408;7.132;2024-03-02T07:51:41;98904.72;;;7.98;70.39
81181;BME280;70650;51.408;7.132;2024-03-02T07:54:06;98909.56;;;8.04;69.91
81181;BME280;70650;51.408;7.132;2024-03-02T07:56:32;98908.66;;;8.18;69.10
81181;BME280;70650;51.408;7.132;2024-03-02T07:58:57;98927.94;;;8.18;69.12
81181;BME280;70650;51.408;7.132;2024-03-02T08:01:27;98910.34;;;8.19;69.53
81181;BME280;70650;51.408;7.132;2024-03-02T08:03:56;98910.44;;;8.17;69.66
81181;BME280;70650;51.408;7.132;2024-03-02T08:06:23;98907.41;;;8.23;68.75
81181;BME280;70650;51.408;7.132;2024-03-02T08:08:51;98913.69;;;8.21;69.62
81181;BME280;70650;51.408;7.132;2024-03-02T08:11:17;98909.19;;;8.23;69.74
81181;BME280;70650;51.408;7.132;2024-03-02T08:13:42;98908.66;;;8.31;69.00
81181;BME280;70650;51.408;7.132;2024-03-02T08:16:08;98919.19;;;8.31;69.16
81181;BME280;70650;51.408;7.132;2024-03-02T08:18:34;98931.38;;;8.46;68.80
81181;BME280;70650;51.408;7.132;2024-03-02T08:21:00;98939.81;;;8.76;68.06
81181;BME280;70650;51.408;7.132;2024-03-02T08:23:25;98937.47;;;8.97;67.09
81181;BME280;70650;51.408;7.132;2024-03-02T08:25:50;98931.44;;;8.95;66.64
81181;BME280;70650;51.408;7.132;2024-03-02T08:28:17;98932.53;;;8.93;67.27
81181;BME280;70650;51.408;7.132;2024-03-02T08:30:42;98936.84;;;8.94;67.31
81181;BME280;70650;51.408;7.132;2024-03-02T08:33:07;98943.78;;;8.95;67.61
81181;BME280;70650;51.408;7.132;2024-03-02T08:35:33;98936.63;;;8.97;66.96
81181;BME280;70650;51.408;7.132;2024-03-02T08:38:02;98936.22;;;9.03;67.06
81181;BME280;70650;51.408;7.132;2024-03-02T08:40:28;98940.28;;;9.07;66.77
81181;BME280;70650;51.408;7.132;2024-03-02T08:42:53;98941.78;;;9.11;66.68
81181;BME280;70650;51.408;7.132;2024-03-02T08:45:19;98946.84;;;9.14;66.57
81181;BME280;70650;51.408;7.132;2024-03-02T08:47:45;98947.69;;;9.15;66.34
81181;BME280;70650;51.408;7.132;2024-03-02T08:50:11;98943.44;;;9.12;65.99
81181;BME280;70650;51.408;7.132;2024-03-02T08:52:36;98937.81;;;9.29;65.83
81181;BME280;70650;51.408;7.132;2024-03-02T08:55:01;98943.00;;;9.31;65.53
81181;BME280;70650;51.408;7.132;2024-03-02T08:57:27;98939.75;;;9.27;65.40
81181;BME280;70650;51.408;7.132;2024-03-02T08:59:52;98941.91;;;9.46;65.51
81181;BME280;70650;51.408;7.132;2024-03-02T09:02:18;98952.19;;;9.62;65.12
81181;BME280;70650;51.408;7.132;2024-03-02T09:04:43;98955.41;;;9.54;64.87
81181;BME280;70650;51.408;7.132;2024-03-02T09:07:08;98947.69;;;9.51;64.40
81181;BME280;70650;51.408;7.132;2024-03-02T09:09:33;98942.72;;;9.60;64.64
81181;BME280;70650;51.408;7.132;2024-03-02T09:11:59;98943.72;;;9.70;64.26
81181;BME280;70650;51.408;7.132;2024-03-02T09:14:25;98946.47;;;9.68;64.16
81181;BME280;70650;51.408;7.132;2024-03-02T09:16:50;98954.19;;;9.71;63.49
81181;BME280;70650;51.408;7.132;2024-03-02T09:19:15;98954.75;;;9.88;63.51
81181;BME280;70650;51.408;7.132;2024-03-02T09:21:42;98953.34;;;9.95;62.78
81181;BME280;70650;51.408;7.132;2024-03-02T09:24:07;98964.16;;;10.03;63.37
81181;BME280;70650;51.408;7.132;2024-03-02T09:26:32;98959.38;;;10.08;63.16
81181;BME280;70650;51.408;7.132;2024-03-02T09:28:57;98960.84;;;10.12;63.07
81181;BME280;70650;51.408;7.132;2024-03-02T09:31:23;98950.28;;;10.12;62.11
81181;BME280;70650;51.408;7.132;2024-03-02T09:33:48;98964.78;;;10.30;62.44
81181;BME280;70650;51.408;7.132;2024-03-02T09:36:20;98963.94;;;10.30;62.58
81181;BME280;70650;51.408;7.132;2024-03-02T09:38:46;98961.34;;;10.41;62.21
81181;BME280;70650;51.408;7.132;2024-03-02T09:41:12;98959.81;;;10.50;61.83
81181;BME280;70650;51.408;7.132;2024-03-02T09:43:38;98955.31;;;10.28;60.85
81181;BME280;70650;51.408;7.132;2024-03-02T09:46:04;98964.38;;;10.48;61.64
81181;BME280;70650;51.408;7.132;2024-03-02T09:48:30;98959.06;;;10.48;60.51
81181;BME280;70650;51.408;7.132;2024-03-02T09:50:55;98950.66;;;10.43;60.51
81181;BME280;70650;51.408;7.132;2024-03-02T09:53:22;98954.16;;;10.54;61.08
81181;BME280;70650;51.408;7.132;2024-03-02T09:55:48;98954.38;;;10.40;60.43
81181;BME280;70650;51.408;7.132;2024-03-02T09:58:14;98949.47;;;10.47;60.49
81181;BME280;70650;51.408;7.132;2024-03-02T10:00:39;98956.13;;;10.64;60.28
81181;BME280;70650;51.408;7.132;2024-03-02T10:03:04;98946.63;;;10.61;60.05
81181;BME280;70650;51.408;7.132;2024-03-02T10:05:30;98947.50;;;10.73;60.28
81181;BME280;70650;51.408;7.132;2024-03-02T10:08:02;98943.28;;;11.04;60.46
81181;BME280;70650;51.408;7.132;2024-03-02T10:10:40;98947.13;;;11.33;60.18
81181;BME280;70650;51.408;7.132;2024-03-02T10:13:11;98944.00;;;11.28;59.06
81181;BME280;70650;51.408;7.132;2024-03-02T10:15:38;98943.28;;;11.04;59.68
81181;BME280;70650;51.408;7.132;2024-03-02T10:18:08;98950.75;;;11.10;60.06
81181;BME280;70650;51.408;7.132;2024-03-02T10:20:34;98944.00;;;11.28;59.44
81181;BME280;70650;51.408;7.132;2024-03-02T10:23:14;98944.00;;;11.28;58.71
81181;BME280;70650;51.408;7.132;2024-03-02T10:25:41;98946.41;;;11.31;58.62
81181;BME280;70650;51.408;7.132;2024-03-02T10:28:06;98947.47;;;11.40;57.97
81181;BME280;70650;51.408;7.132;2024-03-02T10:30:33;98949.84;;;11.65;58.80
81181;BME280;70650;51.408;7.132;2024-03-02T10:33:00;98948.63;;;11.81;57.57
81181;BME280;70650;51.408;7.132;2024-03-02T10:35:28;98948.94;;;11.99;57.64
81181;BME280;70650;51.408;7.132;2024-03-02T10:37:58;98943.56;;;11.78;56.59
81181;BME280;70650;51.408;7.132;2024-03-02T10:40:23;98935.00;;;11.85;56.87
81181;BME280;70650;51.408;7.132;2024-03-02T10:42:52;98933.84;;;12.10;56.53
81181;BME280;70650;51.408;7.132;2024-03-02T10:45:19;98937.66;;;12.17;56.73
81181;BME280;70650;51.408;7.132;2024-03-02T10:47:46;98941.53;;;12.13;56.53
81181;BME280;70650;51.408;7.132;2024-03-02T10:50:12;98940.34;;;12.38;55.97
81181;BME280;70650;51.408;7.132;2024-03-02T10:52:38;98940.41;;;12.69;55.97
81181;BME280;70650;51.408;7.132;2024-03-02T10:55:05;98930.19;;;12.64;54.63
81181;BME280;70650;51.408;7.132;2024-03-02T10:57:54;98925.34;;;13.00;53.73
81181;BME280;70650;51.408;7.132;2024-03-02T11:00:24;98926.22;;;13.41;53.48
81181;BME280;70650;51.408;7.132;2024-03-02T11:02:58;98927.31;;;13.38;52.48
81181;BME280;70650;51.408;7.132;2024-03-02T11:05:34;98928.06;;;13.50;52.82
81181;BME280;70650;51.408;7.132;2024-03-02T11:08:02;98931.28;;;13.53;52.18
81181;BME280;70650;51.408;7.132;2024-03-02T11:10:45;98919.13;;;13.20;52.68
81181;BME280;70650;51.408;7.132;2024-03-02T11:13:13;98912.88;;;13.62;51.56
81181;BME280;70650;51.408;7.132;2024-03-02T11:15:44;98926.06;;;13.33;51.45
81181;BME280;70650;51.408;7.132;2024-03-02T11:18:09;98915.25;;;13.65;50.58
81181;BME280;70650;51.408;7.132;2024-03-02T11:20:39;98923.50;;;13.81;50.68
81181;BME280;70650;51.408;7.132;2024-03-02T11:23:06;98928.13;;;14.18;49.31
81181;BME280;70650;51.408;7.132;2024-03-02T11:25:32;98920.88;;;13.91;50.67
81181;BME280;70650;51.408;7.132;2024-03-02T11:28:04;98903.88;;;13.43;49.96
81181;BME280;70650;51.408;7.132;2024-03-02T11:35:25;98910.66;;;14.05;48.06
81181;BME280;70650;51.408;7.132;2024-03-02T11:37:51;98915.13;;;13.95;48.34
81181;BME280;70650;51.408;7.132;2024-03-02T11:40:24;98907.00;;;13.77;48.48
81181;BME280;70650;51.408;7.132;2024-03-02T11:42:50;98909.41;;;14.10;48.54
81181;BME280;70650;51.408;7.132;2024-03-02T11:45:28;98909.22;;;14.69;48.65
81181;BME280;70650;51.408;7.132;2024-03-02T11:47:55;98904.69;;;14.79;47.55
81181;BME280;70650;51.408;7.132;2024-03-02T11:50:30;98905.03;;;14.38;48.72
81181;BME280;70650;51.408;7.132;2024-03-02T11:52:59;98903.22;;;14.57;48.33
81181;BME280;70650;51.408;7.132;2024-03-02T11:55:25;98907.72;;;14.38;47.42
81181;BME280;70650;51.408;7.132;2024-03-02T11:57:52;98906.00;;;14.46;48.48
81181;BME280;70650;51.408;7.132;2024-03-02T12:00:19;98907.69;;;14.57;47.18
81181;BME280;70650;51.408;7.132;2024-03-02T12:02:46;98902.94;;;14.61;48.19
81181;BME280;70650;51.408;7.132;2024-03-02T12:05:15;98910.34;;;14.57;48.22
81181;BME280;70650;51.408;7.132;2024-03-02T12:07:42;98898.63;;;13.92;49.68
81181;BME280;70650;51.408;7.132;2024-03-02T12:10:08;98898.34;;;14.24;49.99
81181;BME280;70650;51.408;7.132;2024-03-02T12:12:33;98881.81;;;14.49;49.29
81181;BME280;70650;51.408;7.132;2024-03-02T12:14:59;98887.03;;;14.88;48.67
81181;BME280;70650;51.408;7.132;2024-03-02T12:17:25;98886.53;;;14.75;48.36
81181;BME280;70650;51.408;7.132;2024-03-02T12:19:51;98883.78;;;14.47;48.30
81181;BME280;70650;51.408;7.132;2024-03-02T12:22:17;98886.88;;;14.04;49.34
81181;BME280;70650;51.408;7.132;2024-03-02T12:24:42;98883.94;;;14.17;49.26
81181;BME280;70650;51.408;7.132;2024-03-02T12:27:11;98881.81;;;14.59;48.99
81181;BME280;70650;51.408;7.132;2024-03-02T12:29:38;98869.16;;;14.71;48.59
81181;BME280;70650;51.408;7.132;2024-03-02T12:32:04;98875.97;;;14.17;49.27
81181;BME280;70650;51.408;7.132;2024-03-02T12:34:30;98864.47;;;14.26;49.60
81181;BME280;70650;51.408;7.132;2024-03-02T12:36:56;98868.97;;;14.16;49.77
81181;BME280;70650;51.408;7.132;2024-03-02T12:39:22;98865.78;;;14.02;49.03
81181;BME280;70650;51.408;7.132;2024-03-02T12:41:49;98864.50;;;14.06;48.37
81181;BME280;70650;51.408;7.132;2024-03-02T12:44:16;98863.09;;;13.83;49.20
81181;BME280;70650;51.408;7.132;2024-03-02T12:46:41;98864.66;;;13.76;50.11
81181;BME280;70650;51.408;7.132;2024-03-02T12:49:11;98859.75;;;13.62;50.11
81181;BME280;70650;51.408;7.132;2024-03-02T12:51:38;98863.41;;;13.80;49.91
81181;BME280;70650;51.408;7.132;2024-03-02T12:54:09;98859.91;;;13.79;50.29
81181;BME280;70650;51.408;7.132;2024-03-02T12:56:35;98858.78;;;13.82;50.22
81181;BME280;70650;51.408;7.132;2024-03-02T12:59:02;98863.13;;;13.73;50.61
81181;BME280;70650;51.408;7.132;2024-03-02T13:01:28;98856.53;;;13.77;50.95
81181;BME280;70650;51.408;7.132;2024-03-02T13:03:54;98848.41;;;13.89;50.72
81181;BME280;70650;51.408;7.132;2024-03-02T13:06:23;98849.69;;;14.14;49.97
81181;BME280;70650;51.408;7.132;2024-03-02T13:08:48;98836.22;;;14.15;50.82
81181;BME280;70650;51.408;7.132;2024-03-02T13:11:16;98847.97;;;14.32;50.80
81181;BME280;70650;51.408;7.132;2024-03-02T13:13:42;98854.56;;;14.09;50.60
81181;BME280;70650;51.408;7.132;2024-03-02T13:16:10;98845.75;;;13.98;51.22